Time;durP1;ratioP1;P1;durP2;ratioP2;P2;SDS_P1;SDS_P2;PMS_P1;PMS_P2;Temp;Humidity;BMP_temperature;BMP_pressure;BME280_temperature;BME280_humidity;BME280_pressure;Samples;Min_cycle;Max_cycle;Signal;HPM_P1;HPM_P2
2024/03/23 10:41:18;;;;;;;8.10;6.20;;;;;;;16.09;42.68;99694.98;102558;1295;599878;-72
2024/03/23 10:43:47;;;;;;;8.60;6.30;;;;;;;16.16;42.59;99692.58;104863;1272;59663;-71
2024/03/23 10:46:15;;;;;;;8.50;6.40;;;;;;;16.20;42.78;99687.85;104674;1268;60469;-70
2024/03/23 10:48:43;;;;;;;11.90;6.40;;;;;;;16.19;42.47;99689.06;104887;1272;66839;-70
2024/03/23 10:59:08;;;;;;;11.10;6.40;;;;;;;16.00;42.48;99666.35;102465;1297;607506;-71
2024/03/23 11:01:35;;;;;;;8.80;6.00;;;;;;;15.78;41.96;99666.91;104719;1273;59696;-69
2024/03/23 11:04:02;;;;;;;7.90;6.10;;;;;;;15.33;43.60;99668.36;104878;1268;59756;-70
2024/03/23 11:06:37;;;;;;;7.90;6.10;;;;;;;14.88;44.90;99676.27;104961;1274;65949;-71
2024/03/23 11:09:04;;;;;;;7.70;5.90;;;;;;;14.74;45.19;99672.11;105594;1261;59654;-69
2024/03/23 11:11:32;;;;;;;9.90;5.90;;;;;;;14.65;45.19;99670.47;105435;1257;327564;-69
2024/03/23 11:13:59;;;;;;;9.90;6.30;;;;;;;14.53;44.97;99672.45;105902;1254;61494;-70
2024/03/23 11:16:35;;;;;;;7.50;5.80;;;;;;;14.38;45.13;99674.17;105964;1257;59712;-71
2024/03/23 11:19:34;;;;;;;9.90;6.30;;;;;;;14.21;45.39;99669.05;105944;1257;66236;-69
2024/03/23 11:22:01;;;;;;;7.70;6.20;;;;;;;14.07;46.03;99664.22;105823;1259;59714;-70
2024/03/23 11:24:28;;;;;;;7.30;6.00;;;;;;;13.98;46.38;99661.73;105785;1254;65795;-69
2024/03/23 11:26:55;;;;;;;10.10;6.00;;;;;;;13.93;46.44;99656.18;105843;1256;60504;-71
2024/03/23 11:29:22;;;;;;;8.30;6.20;;;;;;;13.84;46.41;99656.55;105706;1257;60468;-68
2024/03/23 11:31:52;;;;;;;10.00;6.00;;;;;;;13.78;47.13;99655.27;105702;1254;63877;-69
2024/03/23 11:34:19;;;;;;;10.70;6.70;;;;;;;13.74;47.94;99653.26;105768;1254;60556;-69
2024/03/23 11:36:46;;;;;;;19.70;15.00;;;;;;;13.79;48.22;99645.91;105789;1254;63784;-68
2024/03/23 11:39:18;;;;;;;9.30;7.10;;;;;;;13.87;48.26;99648.60;105702;1254;60679;-71
2024/03/23 11:42:03;;;;;;;10.10;6.00;;;;;;;13.95;47.80;99648.95;105724;1260;60466;-69
2024/03/23 11:44:30;;;;;;;9.50;5.80;;;;;;;14.00;47.39;99645.42;105657;1260;67137;-69
2024/03/23 11:47:07;;;;;;;7.80;5.70;;;;;;;14.00;47.07;99640.71;105600;1260;60779;-70
2024/03/23 11:49:40;;;;;;;10.10;6.60;;;;;;;14.00;47.85;99632.39;105692;1258;63796;-68
2024/03/23 11:52:10;;;;;;;9.70;6.60;;;;;;;14.04;48.35;99627.37;105586;1255;60820;-69
2024/03/23 11:54:36;;;;;;;9.00;6.50;;;;;;;14.07;48.33;99618.88;105704;1261;60361;-69
2024/03/23 11:57:07;;;;;;;11.60;7.30;;;;;;;14.10;48.07;99613.21;105760;1254;66837;-70
2024/03/23 11:59:39;;;;;;;7.60;6.10;;;;;;;14.16;48.02;99607.54;105817;1254;60477;-68
2024/03/23 12:02:07;;;;;;;9.60;6.50;;;;;;;14.21;48.21;99610.71;105715;1254;65817;-69
2024/03/23 12:04:37;;;;;;;9.10;6.10;;;;;;;14.24;46.97;99609.02;105722;1260;60546;-72
2024/03/23 12:07:13;;;;;;;10.10;6.20;;;;;;;14.26;47.02;99603.04;105820;1254;60444;-73
2024/03/23 12:09:41;;;;;;;8.30;6.30;;;;;;;14.28;47.25;99593.02;105659;1254;66914;-70
2024/03/23 12:12:10;;;;;;;8.70;6.50;;;;;;;14.36;47.23;99583.91;105718;1259;60565;-69
2024/03/23 12:14:37;;;;;;;8.70;6.80;;;;;;;14.42;47.30;99584.73;105757;1254;63719;-69
2024/03/23 12:17:14;;;;;;;7.70;6.30;;;;;;;14.41;47.12;99582.11;105727;1258;60353;-68
2024/03/23 12:19:42;;;;;;;9.60;7.20;;;;;;;14.42;46.91;99584.40;105622;1254;60520;-68
2024/03/23 12:22:08;;;;;;;8.20;6.70;;;;;;;14.47;47.51;99584.55;105571;1254;65829;-67
2024/03/23 12:24:35;;;;;;;9.60;6.60;;;;;;;14.57;47.42;99581.32;105666;1258;60496;-67
2024/03/23 12:27:03;;;;;;;10.00;6.00;;;;;;;14.73;47.41;99568.70;105661;1260;64892;-67
2024/03/23 12:29:33;;;;;;;9.80;7.10;;;;;;;14.96;47.87;99565.11;105677;1254;60533;-67
2024/03/23 12:32:01;;;;;;;9.50;5.60;;;;;;;15.26;46.93;99559.64;105739;1259;60460;-68
2024/03/23 12:34:32;;;;;;;8.50;5.90;;;;;;;15.55;45.94;99559.56;105763;1255;66719;-68
2024/03/23 12:36:59;;;;;;;10.20;6.40;;;;;;;15.73;45.46;99549.61;105661;1257;60473;-69
2024/03/23 12:39:26;;;;;;;11.50;7.00;;;;;;;15.84;45.63;99546.48;105456;1263;64928;-68
2024/03/23 12:41:52;;;;;;;8.40;6.20;;;;;;;15.95;45.10;99545.75;105677;1257;60608;-68
2024/03/23 12:44:19;;;;;;;9.20;6.80;;;;;;;16.10;44.88;99542.98;105731;1256;60463;-68
2024/03/23 12:46:46;;;;;;;9.20;6.60;;;;;;;16.21;44.89;99540.48;105694;1260;67053;-69
2024/03/23 12:49:13;;;;;;;8.50;6.00;;;;;;;16.33;45.33;99535.89;105787;1260;60479;-68
2024/03/23 12:51:48;;;;;;;6.90;6.10;;;;;;;16.49;45.12;99531.45;105673;1259;65959;-69
2024/03/23 12:54:14;;;;;;;9.30;6.50;;;;;;;16.51;44.55;99540.16;105740;1255;60554;-69
2024/03/23 12:56:41;;;;;;;8.20;6.70;;;;;;;16.37;44.92;99541.77;105756;1254;60457;-70
2024/03/23 12:59:08;;;;;;;12.60;7.10;;;;;;;16.21;44.72;99544.70;105759;1258;66915;-68
2024/03/23 13:01:35;;;;;;;6.80;5.90;;;;;;;15.99;44.80;99535.53;105684;1259;60453;-67
2024/03/23 13:04:02;;;;;;;8.00;6.20;;;;;;;15.76;45.49;99526.14;105719;1254;65931;-67
2024/03/23 13:06:33;;;;;;;7.60;6.10;;;;;;;15.58;46.18;99522.22;105631;1260;60424;-70
2024/03/23 13:09:01;;;;;;;7.40;5.90;;;;;;;15.47;46.53;99519.14;105729;1259;60392;-66
2024/03/23 13:11:28;;;;;;;7.40;5.90;;;;;;;15.39;46.82;99513.36;105776;1254;67142;-67
2024/03/23 13:13:55;;;;;;;8.00;6.30;;;;;;;15.24;46.92;99511.79;105685;1258;60449;-67
2024/03/23 13:16:22;;;;;;;10.90;6.40;;;;;;;15.12;47.22;99505.11;105677;1254;65955;-68
2024/03/23 13:18:49;;;;;;;11.30;6.90;;;;;;;15.05;47.65;99503.12;105721;1254;60428;-67
2024/03/23 13:21:16;;;;;;;8.40;6.20;;;;;;;15.01;47.69;99500.21;105618;1259;60441;-67
2024/03/23 13:23:47;;;;;;;8.10;6.20;;;;;;;14.98;47.84;99501.63;105749;1260;67049;-67
2024/03/23 13:26:14;;;;;;;9.40;6.50;;;;;;;14.95;48.00;99500.55;105603;1260;60498;-67
2024/03/23 13:28:44;;;;;;;8.00;6.80;;;;;;;14.94;48.38;99498.73;105753;1259;65818;-69
2024/03/23 13:31:11;;;;;;;40.50;25.50;;;;;;;14.97;48.83;99495.41;105731;1254;60562;-69
2024/03/23 13:33:38;;;;;;;21.80;19.40;;;;;;;15.01;48.95;99493.63;105763;1259;60424;-69
2024/03/23 13:36:05;;;;;;;13.50;10.80;;;;;;;15.06;49.01;99493.32;105738;1254;67032;-72
2024/03/23 13:38:32;;;;;;;20.60;13.90;;;;;;;15.06;48.55;99492.18;105756;1257;61189;-67
2024/03/23 13:40:59;;;;;;;23.80;10.10;;;;;;;15.00;48.76;99494.30;105749;1254;65632;-69
2024/03/23 13:43:27;;;;;;;13.50;8.40;;;;;;;14.94;48.51;99494.98;105738;1259;60598;-68
2024/03/23 13:45:55;;;;;;;9.70;8.20;;;;;;;14.85;48.52;99500.02;105733;1255;60393;-68
2024/03/23 13:48:23;;;;;;;12.10;9.40;;;;;;;14.77;48.68;99502.04;105752;1254;67030;-68
2024/03/23 13:51:02;;;;;;;11.60;9.40;;;;;;;14.70;49.24;99495.19;105757;1260;60479;-67
2024/03/23 13:53:30;;;;;;;10.00;8.10;;;;;;;14.65;49.51;99495.34;105659;1254;65877;-69
2024/03/23 13:55:57;;;;;;;11.20;7.50;;;;;;;14.62;49.30;99495.38;105697;1258;61781;-70
2024/03/23 13:58:25;;;;;;;11.00;7.70;;;;;;;14.58;49.76;99494.55;105674;1260;60744;-68
2024/03/23 14:00:52;;;;;;;12.50;9.00;;;;;;;14.55;50.05;99490.95;105781;1260;66903;-69
2024/03/23 14:03:19;;;;;;;26.00;21.40;;;;;;;14.54;50.26;99489.09;105723;1254;60540;-69
2024/03/23 14:05:49;;;;;;;23.70;18.50;;;;;;;14.55;50.27;99488.73;105718;1259;64805;-70
2024/03/23 14:08:16;;;;;;;31.90;21.80;;;;;;;14.56;50.20;99487.73;105607;1254;60456;-68
2024/03/23 14:10:43;;;;;;;16.70;10.10;;;;;;;14.52;50.03;99486.51;105571;1254;60547;-68
2024/03/23 14:13:10;;;;;;;13.10;9.10;;;;;;;14.47;50.29;99482.20;105710;1255;68265;-70
2024/03/23 14:15:37;;;;;;;9.00;7.40;;;;;;;14.39;50.69;99479.41;105636;1259;60437;-68
2024/03/23 14:18:04;;;;;;;16.10;12.30;;;;;;;14.35;51.00;99482.48;105542;1255;65654;-68
2024/03/23 14:20:31;;;;;;;18.50;15.40;;;;;;;14.30;51.00;99483.41;105661;1254;60396;-69
2024/03/23 14:22:58;;;;;;;9.20;7.60;;;;;;;14.24;51.34;99480.98;105631;1254;60456;-68
2024/03/23 14:25:28;;;;;;;10.30;9.00;;;;;;;14.21;51.39;99480.58;105679;1260;66867;-69
2024/03/23 14:27:55;;;;;;;12.60;9.60;;;;;;;14.17;51.67;99477.94;105692;1254;60517;-69
2024/03/23 14:30:22;;;;;;;18.60;13.90;;;;;;;14.12;51.99;99477.79;105719;1254;65636;-70
2024/03/23 14:32:48;;;;;;;17.30;14.00;;;;;;;14.07;52.06;99484.38;105761;1257;60438;-69
2024/03/23 14:35:15;;;;;;;14.70;9.80;;;;;;;14.01;51.98;99488.57;105743;1258;60492;-69
2024/03/23 14:37:42;;;;;;;29.80;16.80;;;;;;;13.94;52.01;99484.35;105741;1255;66983;-69
2024/03/23 14:40:12;;;;;;;20.20;16.80;;;;;;;13.88;51.96;99477.50;105735;1254;60495;-70
2024/03/23 14:42:39;;;;;;;41.60;18.00;;;;;;;13.84;52.14;99474.45;105713;1254;65808;-70
2024/03/23 14:45:07;;;;;;;28.80;15.90;;;;;;;13.81;52.62;99473.36;105687;1254;60556;-69
2024/03/23 14:47:34;;;;;;;11.80;10.40;;;;;;;13.77;52.71;99476.96;105805;1254;60533;-69
2024/03/23 14:50:02;;;;;;;13.20;11.30;;;;;;;13.73;52.85;99472.92;105847;1254;67210;-70
2024/03/23 14:52:30;;;;;;;12.60;10.50;;;;;;;13.71;53.26;99468.91;105744;1254;60488;-70
2024/03/23 14:54:56;;;;;;;13.10;9.60;;;;;;;13.69;53.31;99464.57;105703;1254;73919;-70
2024/03/23 14:57:23;;;;;;;11.70;9.80;;;;;;;13.68;53.61;99462.02;105724;1256;60473;-70
2024/03/23 14:59:51;;;;;;;12.10;8.80;;;;;;;13.67;53.87;99461.19;105795;1258;60448;-70
2024/03/23 15:02:18;;;;;;;11.30;9.50;;;;;;;13.67;53.80;99456.32;105708;1257;66724;-69
2024/03/23 15:04:45;;;;;;;13.50;9.90;;;;;;;13.68;54.09;99457.02;105562;1254;60627;-70
2024/03/23 15:07:12;;;;;;;10.40;8.60;;;;;;;13.68;54.15;99454.76;105678;1254;65940;-70
2024/03/23 15:09:39;;;;;;;11.50;8.50;;;;;;;13.66;53.80;99454.30;105665;1259;61217;-70
2024/03/23 15:12:07;;;;;;;15.70;8.30;;;;;;;13.62;53.75;99452.96;105438;1254;61351;-70
2024/03/23 15:14:34;;;;;;;12.10;8.80;;;;;;;13.59;53.63;99452.76;105695;1259;67852;-69
2024/03/23 15:17:04;;;;;;;10.20;8.50;;;;;;;13.57;53.73;99452.79;105571;1254;61290;-68
2024/03/23 15:19:31;;;;;;;11.20;8.10;;;;;;;13.54;53.92;99453.23;105442;1260;64599;-69
2024/03/23 15:21:58;;;;;;;13.00;9.70;;;;;;;13.51;54.17;99453.05;105674;1254;61292;-68
2024/03/23 15:24:25;;;;;;;17.20;8.90;;;;;;;13.48;54.34;99449.32;105759;1254;61349;-69
2024/03/23 15:26:52;;;;;;;11.00;7.70;;;;;;;13.44;53.99;99445.25;105659;1254;66801;-69
2024/03/23 15:29:22;;;;;;;10.20;8.40;;;;;;;13.42;54.13;99448.66;105619;1255;61209;-68
2024/03/23 15:31:52;;;;;;;12.50;8.90;;;;;;;13.39;54.29;99447.41;105604;1258;71994;-69
2024/03/23 15:34:21;;;;;;;10.60;8.10;;;;;;;13.35;54.23;99450.46;105674;1254;61413;-68
2024/03/23 15:36:50;;;;;;;11.80;9.00;;;;;;;13.31;54.30;99447.22;105860;1254;61340;-69
2024/03/23 15:39:17;;;;;;;10.80;8.20;;;;;;;13.28;54.32;99447.95;105791;1254;75069;-69
2024/03/23 15:41:47;;;;;;;15.50;10.20;;;;;;;13.23;54.39;99447.02;105622;1260;61295;-68
2024/03/23 15:44:14;;;;;;;20.00;15.30;;;;;;;13.18;54.59;99452.44;105737;1254;65799;-68
2024/03/23 15:46:41;;;;;;;12.00;9.90;;;;;;;13.13;54.60;99453.45;105718;1254;61272;-68
2024/03/23 15:49:08;;;;;;;14.60;10.90;;;;;;;13.09;54.61;99454.55;105826;1254;62709;-68
2024/03/23 15:51:36;;;;;;;12.00;8.80;;;;;;;13.06;54.72;99456.01;105707;1259;76205;-68
2024/03/23 15:54:03;;;;;;;12.60;10.50;;;;;;;13.02;54.95;99460.59;105590;1254;61295;-68
2024/03/23 15:56:30;;;;;;;14.20;10.10;;;;;;;12.99;54.94;99460.27;105632;1257;65765;-67
2024/03/23 15:59:06;;;;;;;10.60;8.60;;;;;;;12.96;54.97;99457.98;105715;1254;61268;-68
2024/03/23 16:01:38;;;;;;;10.30;7.80;;;;;;;12.94;55.12;99458.02;105719;1254;61369;-68
2024/03/23 16:04:05;;;;;;;8.20;7.00;;;;;;;12.89;55.29;99451.02;105624;1255;76897;-69
2024/03/23 16:06:32;;;;;;;9.20;8.00;;;;;;;12.64;55.89;99445.70;105704;1254;61337;-69
2024/03/23 16:08:58;;;;;;;21.90;9.10;;;;;;;12.44;56.45;99449.50;105561;1257;65586;-69
2024/03/23 16:11:25;;;;;;;12.30;9.00;;;;;;;12.36;56.81;99448.03;105633;1259;61468;-69
2024/03/23 16:13:52;;;;;;;12.10;9.50;;;;;;;12.30;57.25;99448.25;105283;1254;61372;-70
2024/03/23 16:16:22;;;;;;;12.30;8.80;;;;;;;12.26;57.59;99445.73;105672;1254;68358;-69
2024/03/23 16:18:49;;;;;;;11.90;8.60;;;;;;;12.22;57.79;99445.41;105754;1256;61344;-69
2024/03/23 16:21:17;;;;;;;12.90;9.00;;;;;;;12.41;57.57;99441.14;105576;1258;64388;-69
2024/03/23 16:23:46;;;;;;;16.30;10.10;;;;;;;12.53;57.24;99444.33;105697;1259;61435;-70
2024/03/23 16:26:16;;;;;;;41.60;27.90;;;;;;;12.56;57.14;99443.36;105863;1254;61743;-68
2024/03/23 16:28:43;;;;;;;48.80;22.40;;;;;;;12.56;57.19;99441.77;105784;1256;67967;-69
2024/03/23 16:31:10;;;;;;;39.60;31.50;;;;;;;12.55;57.11;99441.49;105734;1254;61215;-68
2024/03/23 16:33:37;;;;;;;22.60;18.10;;;;;;;12.54;57.01;99439.15;105797;1257;64829;-69
2024/03/23 16:36:09;;;;;;;21.50;16.80;;;;;;;12.52;57.18;99436.46;105811;1254;61347;-68
2024/03/23 16:38:36;;;;;;;83.50;20.40;;;;;;;12.50;57.26;99441.42;105707;1254;61319;-71
2024/03/23 16:41:07;;;;;;;23.80;15.40;;;;;;;12.48;57.32;99442.18;105707;1256;67858;-69
2024/03/23 16:43:34;;;;;;;58.00;16.10;;;;;;;12.45;57.42;99442.13;105651;1254;61368;-68
2024/03/23 16:46:10;;;;;;;12.60;9.30;;;;;;;12.43;57.59;99438.66;105751;1254;63603;-68
2024/03/23 16:48:41;;;;;;;17.60;9.80;;;;;;;12.40;57.73;99437.40;105711;1254;61384;-69
2024/03/23 16:51:09;;;;;;;12.30;9.40;;;;;;;12.38;57.66;99437.05;105760;1256;62572;-68
2024/03/23 16:53:36;;;;;;;11.50;9.40;;;;;;;12.37;57.78;99438.48;105548;1255;67798;-69
2024/03/23 16:56:04;;;;;;;13.50;10.20;;;;;;;12.34;57.91;99437.65;105697;1255;61391;-68
2024/03/23 16:58:31;;;;;;;13.90;9.30;;;;;;;12.31;57.95;99435.45;105730;1254;65691;-68
2024/03/23 17:01:18;;;;;;;12.40;9.20;;;;;;;12.29;58.05;99435.01;105586;1254;61275;-69
2024/03/23 17:03:51;;;;;;;12.30;9.00;;;;;;;12.27;58.18;99433.94;105448;1254;61373;-68
2024/03/23 17:06:19;;;;;;;11.90;9.00;;;;;;;12.24;58.24;99431.95;105329;1254;76259;-69
2024/03/23 17:08:49;;;;;;;12.80;9.10;;;;;;;12.21;58.41;99428.16;105595;1254;61278;-69
2024/03/23 17:11:19;;;;;;;12.40;8.90;;;;;;;12.19;58.39;99427.70;105690;1254;65169;-70
2024/03/23 17:13:48;;;;;;;12.70;9.10;;;;;;;12.17;58.52;99429.55;105408;1254;61317;-69
2024/03/23 17:16:16;;;;;;;12.50;9.20;;;;;;;12.14;58.53;99431.28;105466;1254;61266;-70
2024/03/23 17:18:43;;;;;;;13.20;9.90;;;;;;;12.10;58.58;99437.27;105243;1254;66797;-69
2024/03/23 17:21:10;;;;;;;9.80;8.50;;;;;;;12.09;58.59;99438.09;105633;1259;61249;-68
2024/03/23 17:23:37;;;;;;;12.10;9.20;;;;;;;12.07;58.68;99439.02;105464;1254;65736;-69
2024/03/23 17:26:03;;;;;;;13.10;9.50;;;;;;;12.04;58.79;99435.72;105482;1259;61295;-69
2024/03/23 17:28:30;;;;;;;11.70;9.40;;;;;;;12.02;58.75;99436.97;105613;1254;61816;-69
2024/03/23 17:30:57;;;;;;;12.60;9.50;;;;;;;11.99;58.91;99438.34;105630;1254;66760;-68
2024/03/23 17:33:24;;;;;;;11.80;9.10;;;;;;;11.95;58.85;99436.24;105630;1254;61225;-69
2024/03/23 17:35:51;;;;;;;11.90;8.80;;;;;;;11.92;58.99;99434.14;105633;1257;65739;-70
2024/03/23 17:38:19;;;;;;;12.20;9.20;;;;;;;11.88;59.06;99433.67;105774;1254;61263;-70
2024/03/23 17:40:45;;;;;;;11.70;9.10;;;;;;;11.85;59.15;99433.24;105627;1254;61264;-69
2024/03/23 17:43:14;;;;;;;10.00;8.80;;;;;;;11.82;59.12;99435.48;105688;1259;68025;-69
2024/03/23 17:45:40;;;;;;;11.10;8.80;;;;;;;11.80;59.12;99436.59;105628;1254;61231;-70
2024/03/23 17:48:08;;;;;;;12.20;9.00;;;;;;;11.77;59.02;99435.77;105746;1259;65441;-69
2024/03/23 17:50:35;;;;;;;13.10;9.00;;;;;;;11.76;59.05;99435.46;105510;1256;61283;-71
2024/03/23 17:53:02;;;;;;;11.40;8.80;;;;;;;11.73;59.18;99434.38;105686;1256;61292;-69
2024/03/23 17:55:29;;;;;;;11.00;8.80;;;;;;;11.70;59.23;99437.70;105600;1260;67790;-69
2024/03/23 17:57:58;;;;;;;12.30;8.80;;;;;;;11.68;59.22;99433.73;105630;1258;61228;-69
2024/03/23 18:00:25;;;;;;;12.20;9.20;;;;;;;11.67;59.24;99434.09;105830;1254;65678;-70
2024/03/23 18:02:52;;;;;;;11.60;9.00;;;;;;;11.65;59.30;99434.34;105572;1254;61333;-69
2024/03/23 18:05:21;;;;;;;12.30;9.00;;;;;;;11.61;59.26;99433.67;105678;1254;61349;-69
2024/03/23 18:07:48;;;;;;;12.00;8.60;;;;;;;11.59;59.31;99434.78;105547;1258;67561;-71
2024/03/23 18:10:15;;;;;;;11.80;8.90;;;;;;;11.57;59.43;99435.67;105663;1257;61438;-69
2024/03/23 18:12:45;;;;;;;9.80;8.70;;;;;;;11.54;59.43;99430.99;105755;1257;64667;-68
2024/03/23 18:15:12;;;;;;;13.00;9.10;;;;;;;11.51;59.49;99429.91;105756;1254;61273;-68
2024/03/23 18:17:45;;;;;;;12.10;9.40;;;;;;;11.49;59.67;99432.21;105706;1254;61445;-70
2024/03/23 18:20:12;;;;;;;12.40;9.30;;;;;;;11.47;59.80;99432.58;105804;1254;65596;-70
2024/03/23 18:22:39;;;;;;;11.40;9.20;;;;;;;11.43;59.88;99433.87;105630;1260;61433;-68
2024/03/23 18:25:06;;;;;;;11.40;8.90;;;;;;;11.36;60.08;99434.73;105831;1254;65730;-69
2024/03/23 18:27:33;;;;;;;11.70;9.00;;;;;;;11.32;60.28;99435.84;105666;1256;61339;-69
2024/03/23 18:30:00;;;;;;;13.50;9.40;;;;;;;11.28;60.35;99435.36;105721;1254;61372;-69
2024/03/23 18:32:26;;;;;;;12.20;9.20;;;;;;;11.25;60.53;99437.08;105695;1254;67639;-69
2024/03/23 18:34:53;;;;;;;12.90;9.30;;;;;;;11.20;60.76;99434.19;105706;1258;67499;-70
2024/03/23 18:37:20;;;;;;;13.80;9.50;;;;;;;11.15;60.82;99430.20;105581;1254;71957;-68
2024/03/23 18:39:47;;;;;;;12.80;9.70;;;;;;;11.12;60.90;99427.40;105667;1254;61210;-68
2024/03/23 18:42:13;;;;;;;14.00;9.50;;;;;;;11.08;61.10;99427.25;105659;1256;61379;-68
2024/03/23 18:44:40;;;;;;;14.40;9.90;;;;;;;11.04;61.12;99427.48;105528;1259;67283;-70
2024/03/23 18:47:07;;;;;;;11.60;9.20;;;;;;;11.02;61.24;99429.02;105439;1256;61286;-70
2024/03/23 18:49:35;;;;;;;13.70;9.90;;;;;;;11.00;61.32;99425.90;105654;1255;64724;-70
2024/03/23 18:52:02;;;;;;;12.40;10.00;;;;;;;10.98;61.39;99429.08;105582;1254;61138;-70
2024/03/23 18:54:29;;;;;;;10.80;9.40;;;;;;;10.96;61.50;99426.65;105434;1254;62431;-70
2024/03/23 18:56:56;;;;;;;12.50;9.60;;;;;;;10.93;61.48;99422.50;105541;1256;66437;-70
2024/03/23 18:59:23;;;;;;;12.30;9.80;;;;;;;10.91;61.49;99421.33;105449;1254;61359;-69
2024/03/23 19:01:49;;;;;;;14.70;9.80;;;;;;;10.88;61.56;99417.53;105653;1254;65833;-71
2024/03/23 19:04:16;;;;;;;13.10;9.80;;;;;;;10.86;61.57;99420.19;105399;1257;61359;-69
2024/03/23 19:06:43;;;;;;;14.00;10.50;;;;;;;10.85;61.58;99425.73;105558;1259;61330;-70
2024/03/23 19:09:11;;;;;;;13.40;10.30;;;;;;;10.83;61.59;99429.97;105618;1259;67901;-70
2024/03/23 19:11:38;;;;;;;12.50;9.40;;;;;;;10.81;61.76;99426.45;105676;1254;61336;-67
2024/03/23 19:14:06;;;;;;;13.30;11.00;;;;;;;10.79;61.89;99427.89;105603;1259;65962;-71
2024/03/23 19:16:32;;;;;;;13.80;10.90;;;;;;;10.76;62.03;99427.37;105688;1254;61214;-69
2024/03/23 19:18:59;;;;;;;16.00;12.10;;;;;;;10.71;62.22;99427.63;105776;1256;61244;-69
2024/03/23 19:21:26;;;;;;;14.30;11.70;;;;;;;10.68;62.41;99422.80;105588;1257;68085;-69
2024/03/23 19:23:53;;;;;;;17.00;12.90;;;;;;;10.66;62.51;99424.82;105310;1254;61376;-69
2024/03/23 19:26:20;;;;;;;18.70;13.10;;;;;;;10.63;62.82;99424.55;105693;1254;65856;-69
2024/03/23 19:28:47;;;;;;;18.40;12.50;;;;;;;10.59;62.90;99421.16;105641;1254;61256;-70
2024/03/23 19:31:15;;;;;;;17.90;13.30;;;;;;;10.56;63.14;99421.10;105823;1259;61366;-70
2024/03/23 19:33:42;;;;;;;18.30;13.10;;;;;;;10.53;63.19;99418.43;105815;1254;66811;-70
2024/03/23 19:36:09;;;;;;;17.30;12.90;;;;;;;10.50;63.44;99421.17;105897;1258;61346;-69
2024/03/23 19:38:36;;;;;;;16.50;13.30;;;;;;;10.48;63.56;99422.21;105724;1254;65446;-69
2024/03/23 19:41:03;;;;;;;20.20;14.00;;;;;;;10.45;63.74;99422.32;105727;1254;61239;-68
2024/03/23 19:43:30;;;;;;;20.20;14.30;;;;;;;10.42;63.92;99420.32;105804;1254;61234;-68
2024/03/23 19:46:02;;;;;;;20.40;14.40;;;;;;;10.40;64.06;99420.41;105704;1259;67968;-68
2024/03/23 19:48:29;;;;;;;18.10;13.70;;;;;;;10.38;64.25;99419.86;105791;1254;61320;-70
2024/03/23 19:50:57;;;;;;;22.50;15.90;;;;;;;10.36;64.37;99422.70;105511;1256;65682;-69
2024/03/23 19:53:25;;;;;;;21.80;15.80;;;;;;;10.34;64.53;99427.25;105591;1259;61225;-69
2024/03/23 19:55:56;;;;;;;20.40;16.00;;;;;;;10.32;64.63;99427.20;105712;1259;61225;-69
2024/03/23 19:58:23;;;;;;;18.90;15.10;;;;;;;10.30;64.66;99426.88;105650;1254;66644;-69
2024/03/23 20:00:50;;;;;;;24.20;15.50;;;;;;;10.28;64.83;99426.56;105726;1256;61246;-71
2024/03/23 20:03:16;;;;;;;20.60;16.80;;;;;;;10.25;65.05;99421.90;105706;1259;65672;-70
2024/03/23 20:05:45;;;;;;;19.70;14.90;;;;;;;10.23;65.02;99428.77;105634;1254;61237;-69
2024/03/23 20:08:12;;;;;;;21.70;16.20;;;;;;;10.21;65.18;99422.45;105409;1254;61304;-69
2024/03/23 20:10:47;;;;;;;23.80;16.90;;;;;;;10.17;65.27;99424.89;105698;1255;67844;-69
2024/03/23 20:13:14;;;;;;;20.40;16.70;;;;;;;10.14;65.31;99426.25;105765;1259;61231;-69
2024/03/23 20:15:43;;;;;;;21.80;16.70;;;;;;;10.12;65.32;99421.91;105638;1255;64459;-69
2024/03/23 20:18:10;;;;;;;22.20;17.40;;;;;;;10.09;65.40;99420.61;105755;1254;61395;-70
2024/03/23 20:20:38;;;;;;;22.10;17.20;;;;;;;10.06;65.58;99422.80;105734;1254;61333;-70
2024/03/23 20:23:05;;;;;;;21.80;16.80;;;;;;;10.02;65.55;99420.12;105760;1259;67773;-70
2024/03/23 20:25:32;;;;;;;22.60;17.80;;;;;;;9.99;65.66;99418.14;105412;1255;61372;-70
2024/03/23 20:27:59;;;;;;;21.60;16.00;;;;;;;9.95;65.79;99417.82;105440;1256;73564;-70
2024/03/23 20:30:26;;;;;;;22.60;16.50;;;;;;;9.92;65.77;99420.14;105692;1254;61213;-70
2024/03/23 20:32:53;;;;;;;25.30;17.60;;;;;;;9.90;65.64;99427.29;105662;1254;61465;-68
2024/03/23 20:35:19;;;;;;;24.50;16.60;;;;;;;9.87;65.66;99423.99;105727;1254;66617;-70
2024/03/23 20:37:46;;;;;;;21.50;15.60;;;;;;;9.86;65.71;99423.81;105724;1258;61388;-68
2024/03/23 20:40:13;;;;;;;20.40;16.10;;;;;;;9.82;65.71;99419.96;105719;1256;65915;-69
2024/03/23 20:42:40;;;;;;;21.10;16.20;;;;;;;9.78;65.77;99420.33;105564;1255;61325;-69
2024/03/23 20:45:09;;;;;;;22.40;16.20;;;;;;;9.73;65.88;99419.10;105686;1256;61248;-70
2024/03/23 20:47:38;;;;;;;21.10;16.80;;;;;;;9.69;65.86;99414.02;105747;1255;67754;-70
2024/03/23 20:50:06;;;;;;;21.10;16.10;;;;;;;9.67;65.92;99411.83;105673;1259;61359;-70
2024/03/23 20:52:34;;;;;;;22.30;16.10;;;;;;;9.64;65.98;99409.97;105413;1257;73074;-70
2024/03/23 20:55:02;;;;;;;22.30;15.80;;;;;;;9.61;65.96;99406.17;105615;1257;62552;-69
2024/03/23 20:57:29;;;;;;;21.10;15.90;;;;;;;9.59;65.96;99409.38;106547;1256;61366;-70
2024/03/23 20:59:56;;;;;;;20.30;15.40;;;;;;;9.56;66.00;99402.75;105782;1257;65576;-68
2024/03/23 21:02:23;;;;;;;20.70;15.70;;;;;;;9.54;66.11;99406.66;105545;1255;61270;-69
2024/03/23 21:04:50;;;;;;;20.50;15.50;;;;;;;9.51;66.19;99408.65;105580;1255;65636;-66
2024/03/23 21:07:17;;;;;;;19.30;14.80;;;;;;;9.47;66.23;99411.98;105652;1255;61258;-68
2024/03/23 21:09:44;;;;;;;18.80;15.10;;;;;;;9.44;66.14;99408.09;105556;1254;61172;-68
2024/03/23 21:19:54;;;;;;;17.20;13.70;;;;;;;9.34;66.30;99399.84;102567;1295;601318;-68
2024/03/23 21:22:22;;;;;;;18.90;14.30;;;;;;;9.29;66.18;99395.36;105339;1264;63245;-67
2024/03/23 21:24:50;;;;;;;19.20;13.70;;;;;;;9.28;66.18;99399.55;105096;1261;61609;-66
2024/03/23 21:27:18;;;;;;;17.80;13.70;;;;;;;9.25;66.10;99401.89;104941;1259;68178;-67
2024/03/23 21:29:45;;;;;;;17.20;13.90;;;;;;;9.23;66.10;99402.80;105283;1267;59657;-67
2024/03/23 21:32:13;;;;;;;18.20;14.00;;;;;;;9.20;66.09;99401.48;105434;1258;66740;-67
2024/03/23 21:34:41;;;;;;;19.60;13.50;;;;;;;9.17;66.07;99398.16;105526;1261;216506;-68
2024/03/23 21:37:09;;;;;;;16.30;13.30;;;;;;;9.16;66.07;99392.45;105648;1259;59574;-68
2024/03/23 21:39:36;;;;;;;19.90;14.50;;;;;;;9.14;66.09;99387.23;105683;1260;64026;-69
2024/03/23 21:42:04;;;;;;;18.00;13.80;;;;;;;9.11;66.05;99387.84;105749;1260;67443;-68
2024/03/23 21:44:31;;;;;;;16.70;13.60;;;;;;;9.07;65.98;99387.48;105587;1254;74990;-68
2024/03/23 21:54:39;;;;;;;15.90;12.40;;;;;;;8.98;65.56;99383.54;102569;1295;600726;-67
2024/03/23 21:57:07;;;;;;;16.10;12.60;;;;;;;8.95;65.44;99385.75;104899;1266;59827;-68
2024/03/23 21:59:34;;;;;;;15.70;12.60;;;;;;;8.92;65.28;99384.59;104919;1270;59533;-68
2024/03/23 22:02:02;;;;;;;15.70;12.00;;;;;;;8.89;65.16;99382.73;104600;1273;64129;-69
2024/03/23 22:04:29;;;;;;;15.70;12.00;;;;;;;8.88;65.12;99379.73;104853;1270;59641;-68
2024/03/23 22:06:57;;;;;;;14.00;11.90;;;;;;;8.85;65.13;99379.64;104812;1272;63767;-68
2024/03/23 22:09:28;;;;;;;16.10;12.40;;;;;;;8.82;65.06;99380.02;104750;1264;209763;-66
2024/03/23 22:11:56;;;;;;;17.70;12.10;;;;;;;8.80;65.02;99376.17;105074;1263;61204;-68
2024/03/23 22:14:24;;;;;;;16.10;12.20;;;;;;;8.78;64.92;99377.24;104988;1269;64050;-68
2024/03/23 22:16:51;;;;;;;15.70;12.20;;;;;;;8.74;64.86;99377.06;104744;1264;59688;-67
2024/03/23 22:19:19;;;;;;;15.80;11.80;;;;;;;8.73;64.92;99373.17;104814;1263;63699;-66
2024/03/23 22:21:46;;;;;;;15.50;11.80;;;;;;;8.70;64.94;99377.95;104820;1266;60565;-65
2024/03/23 22:24:13;;;;;;;16.30;11.60;;;;;;;8.68;64.88;99372.21;104803;1269;60354;-68